Time;durP1;ratioP1;P1;durP2;ratioP2;P2;SDS_P1;SDS_P2;PMS_P1;PMS_P2;Temp;Humidity;BMP_temperature;BMP_pressure;BME280_temperature;BME280_humidity;BME280_pressure;Samples;Min_cycle;Max_cycle;Signal;HPM_P1;HPM_P2
2022/01/22 00:00:24;;;;;;;12.18;6.08;;;;;;;-0.50;100.00;100210.98;1718841;82;21129;-74
2022/01/22 00:02:52;;;;;;;12.05;5.55;;;;;;;-0.55;100.00;100210.98;1718292;83;20999;-72
2022/01/22 00:05:22;;;;;;;12.58;5.90;;;;;;;-0.57;100.00;100206.78;1722444;82;21046;-74
2022/01/22 00:07:50;;;;;;;11.12;5.90;;;;;;;-0.52;100.00;100210.98;1717070;83;21019;-73
2022/01/22 00:10:22;;;;;;;10.43;5.40;;;;;;;-0.49;100.00;100210.13;1721493;82;21054;-73
2022/01/22 00:15:22;;;;;;;9.65;5.03;;;;;;;-0.44;100.00;100196.63;1718564;82;21070;-73
2022/01/22 00:17:51;;;;;;;11.22;4.90;;;;;;;-0.49;100.00;100194.95;1717703;82;21023;-73
2022/01/22 00:20:21;;;;;;;8.38;5.28;;;;;;;-0.54;100.00;100205.52;1724069;82;21067;-73
2022/01/22 00:22:48;;;;;;;11.10;5.58;;;;;;;-0.53;100.00;100200.87;1718399;82;21524;-74
2022/01/22 00:25:18;;;;;;;17.87;7.92;;;;;;;-0.52;100.00;100200.87;1718882;83;21580;-74
2022/01/22 00:27:48;;;;;;;20.48;8.98;;;;;;;-0.55;100.00;100200.03;1717052;83;21038;-73
2022/01/22 00:30:22;;;;;;;17.15;7.58;;;;;;;-0.56;100.00;100194.58;1714238;83;21527;-73
2022/01/22 00:32:51;;;;;;;17.35;7.80;;;;;;;-0.57;100.00;100181.50;1718781;82;21496;-73
2022/01/22 00:35:21;;;;;;;16.40;6.80;;;;;;;-0.58;100.00;100175.61;1715948;83;21071;-73
2022/01/22 00:37:52;;;;;;;17.10;9.58;;;;;;;-0.62;100.00;100176.03;1721152;82;21015;-72
2022/01/22 00:40:19;;;;;;;18.75;8.35;;;;;;;-0.63;100.00;100174.77;1717355;83;21059;-72
2022/01/22 00:42:48;;;;;;;14.98;6.40;;;;;;;-0.65;100.00;100171.01;1719913;82;21016;-73
2022/01/22 00:45:16;;;;;;;14.70;6.22;;;;;;;-0.64;100.00;100176.47;1718189;83;21051;-73
2022/01/22 00:47:47;;;;;;;18.92;7.92;;;;;;;-0.66;100.00;100169.74;1722365;82;21032;-73
2022/01/22 00:50:17;;;;;;;20.35;9.93;;;;;;;-0.71;100.00;100173.56;1722606;82;21027;-72
2022/01/22 00:52:46;;;;;;;11.55;7.05;;;;;;;-0.75;100.00;100173.16;1719695;82;21094;-73
2022/01/22 00:55:15;;;;;;;12.95;6.62;;;;;;;-0.75;100.00;100173.16;1720723;82;21556;-72
2022/01/22 00:57:43;;;;;;;14.65;7.05;;;;;;;-0.73;100.00;100171.46;1719643;82;21058;-73
2022/01/22 01:00:16;;;;;;;15.13;6.78;;;;;;;-0.78;100.00;100173.58;1716003;83;21027;-72
2022/01/22 01:02:44;;;;;;;12.53;5.62;;;;;;;-0.78;100.00;100173.14;1716446;83;21046;-73
2022/01/22 01:05:13;;;;;;;12.50;5.90;;;;;;;-0.85;100.00;100174.03;1719510;83;20979;-73
2022/01/22 01:07:41;;;;;;;12.43;5.58;;;;;;;-0.94;100.00;100172.77;1717303;82;21008;-73
2022/01/22 01:10:13;;;;;;;16.17;6.25;;;;;;;-0.98;100.00;100173.20;1718488;83;21074;-73
2022/01/22 01:12:41;;;;;;;16.67;7.70;;;;;;;-1.08;100.00;100173.63;1718485;82;21063;-73
2022/01/22 01:15:25;;;;;;;17.77;7.37;;;;;;;-1.17;100.00;100178.72;1721631;82;21167;-73
2022/01/22 01:18:03;;;;;;;15.72;7.05;;;;;;;-1.26;100.00;100178.31;1720233;82;21109;-72
2022/01/22 01:34:12;;;;;;;13.20;5.80;;;;;;;-1.84;100.00;100194.28;1719543;83;21546;-72
2022/01/22 01:36:41;;;;;;;9.75;5.12;;;;;;;-1.91;100.00;100198.88;1723027;82;21050;-72
2022/01/22 01:39:13;;;;;;;18.85;7.45;;;;;;;-1.97;100.00;100195.51;1721593;82;21011;-72
2022/01/22 01:42:04;;;;;;;18.87;7.55;;;;;;;-2.06;100.00;100192.13;1720807;82;21456;-71
2022/01/22 01:44:30;;;;;;;22.83;8.10;;;;;;;-2.10;100.00;100190.86;1718969;83;21031;-71
2022/01/22 01:47:10;;;;;;;18.97;7.37;;;;;;;-2.17;100.00;100194.20;1719255;83;21046;-71
2022/01/22 01:49:38;;;;;;;15.57;6.17;;;;;;;-2.22;100.00;100197.97;1718310;83;21047;-71
2022/01/22 01:52:12;;;;;;;19.17;7.70;;;;;;;-2.27;100.00;100192.92;1698180;83;21019;-73
2022/01/22 01:54:58;;;;;;;14.07;6.03;;;;;;;-2.37;100.00;100195.39;1720218;83;21030;-71
2022/01/22 01:59:54;;;;;;;13.33;5.40;;;;;;;-2.48;100.00;100201.23;1721170;82;21074;-72
2022/01/22 02:02:26;;;;;;;14.73;5.90;;;;;;;-2.50;100.00;100204.16;1720687;82;21089;-72
2022/01/22 02:04:54;;;;;;;12.10;5.73;;;;;;;-2.58;100.00;100207.06;1721643;82;21058;-71
2022/01/22 02:07:22;;;;;;;12.63;5.60;;;;;;;-2.59;100.00;100213.38;1721544;82;21102;-72
2022/01/22 02:09:51;;;;;;;10.73;5.67;;;;;;;-2.65;100.00;100206.20;1719111;83;21048;-71
2022/01/22 02:12:41;;;;;;;13.33;5.80;;;;;;;-2.68;100.00;100207.44;1717178;82;21488;-72
2022/01/22 02:23:42;;;;;;;11.87;5.33;;;;;;;-2.89;100.00;100222.45;1719536;83;21007;-71
2022/01/22 02:26:05;;;;;;;11.47;5.23;;;;;;;-2.94;100.00;100221.17;1716210;82;21023;-70
2022/01/22 02:28:34;;;;;;;12.63;5.63;;;;;;;-2.94;100.00;100226.20;1716613;82;21078;-72
2022/01/22 02:36:31;;;;;;;9.83;5.25;;;;;;;-3.06;100.00;100233.26;1691046;83;21066;-71
2022/01/22 02:38:58;;;;;;;9.77;5.00;;;;;;;-3.09;100.00;100226.92;1693757;83;21031;-70
2022/01/22 02:41:23;;;;;;;16.40;6.60;;;;;;;-3.15;100.00;100226.88;1722436;82;21027;-71
2022/01/22 02:43:49;;;;;;;12.97;5.97;;;;;;;-3.17;100.00;100227.71;1725125;82;21063;-72
2022/01/22 02:46:23;;;;;;;15.10;6.20;;;;;;;-3.23;100.00;100222.20;1714950;83;21086;-70
2022/01/22 02:48:56;;;;;;;16.93;6.67;;;;;;;-3.30;100.00;100215.45;1719427;83;21075;-71
2022/01/22 02:51:26;;;;;;;15.43;6.20;;;;;;;-3.30;100.00;100217.98;1717123;83;21146;-71
2022/01/22 02:53:56;;;;;;;13.60;5.90;;;;;;;-3.33;100.00;100215.42;1714769;83;20988;-72
2022/01/22 02:56:24;;;;;;;12.30;5.80;;;;;;;-3.34;100.00;100222.13;1717505;83;21031;-71
2022/01/22 02:58:53;;;;;;;14.80;6.33;;;;;;;-3.35;100.00;100223.37;1717089;83;21051;-71
2022/01/22 03:01:23;;;;;;;15.13;6.63;;;;;;;-3.38;100.00;100224.20;1720712;82;21550;-72
2022/01/22 03:03:50;;;;;;;11.97;6.70;;;;;;;-3.44;100.00;100227.92;1716887;82;21518;-70
2022/01/22 03:06:18;;;;;;;15.30;6.63;;;;;;;-3.47;100.00;100223.72;1719161;82;21043;-71
2022/01/22 03:08:47;;;;;;;13.80;5.70;;;;;;;-3.53;100.00;100224.05;1722275;82;21586;-71
2022/01/22 03:11:20;;;;;;;10.27;5.43;;;;;;;-3.54;100.00;100214.84;1720335;82;21054;-70
2022/01/22 03:14:24;;;;;;;9.90;5.17;;;;;;;-3.53;100.00;100224.89;1718518;83;21074;-71
2022/01/22 03:18:51;;;;;;;12.40;5.30;;;;;;;-3.65;100.00;100228.56;1718766;82;21031;-71
2022/01/22 03:29:20;;;;;;;12.57;5.77;;;;;;;-3.70;100.00;100230.20;1717664;82;21007;-70
2022/01/22 03:31:47;;;;;;;13.93;6.10;;;;;;;-3.77;100.00;100236.86;1719128;83;21534;-70
2022/01/22 03:34:14;;;;;;;13.13;6.13;;;;;;;-3.75;100.00;100239.36;1719354;82;21086;-70
2022/01/22 03:36:42;;;;;;;10.97;5.63;;;;;;;-3.79;100.00;100242.67;1719737;83;21047;-71
2022/01/22 03:39:10;;;;;;;13.17;5.97;;;;;;;-3.86;100.00;100241.36;1719135;83;21110;-71
2022/01/22 03:41:40;;;;;;;12.70;5.83;;;;;;;-3.92;100.00;100235.43;1702888;82;21015;-71
2022/01/22 03:44:08;;;;;;;11.50;5.90;;;;;;;-3.94;100.00;100239.18;1724486;82;21051;-71
2022/01/22 03:46:38;;;;;;;15.97;5.97;;;;;;;-3.92;100.00;100241.72;1722503;82;21066;-71
2022/01/22 03:49:05;;;;;;;10.53;4.60;;;;;;;-3.99;100.00;100246.23;1718217;82;21066;-71
2022/01/22 03:51:32;;;;;;;10.83;5.70;;;;;;;-4.08;100.00;100249.08;1722957;82;21082;-71
2022/01/22 03:53:59;;;;;;;15.70;6.10;;;;;;;-4.13;100.00;100253.65;1716882;83;21031;-71
2022/01/22 03:56:27;;;;;;;16.20;6.53;;;;;;;-4.14;100.00;100255.72;1718785;82;21078;-71
2022/01/22 03:59:02;;;;;;;12.50;5.63;;;;;;;-4.15;100.00;100263.67;1717474;83;21059;-71
2022/01/22 04:04:32;;;;;;;9.83;5.10;;;;;;;-4.14;100.00;100270.80;1716008;82;21523;-72
2022/01/22 04:07:41;;;;;;;9.80;5.37;;;;;;;-4.17;100.00;100271.61;1714828;83;21058;-71
2022/01/22 04:09:45;;;;;;;12.13;5.50;;;;;;;-4.15;100.00;100277.50;1715412;82;21043;-71
2022/01/22 04:12:15;;;;;;;10.27;4.90;;;;;;;-4.09;100.00;100281.77;1720235;82;21032;-72
2022/01/22 04:14:52;;;;;;;10.70;5.40;;;;;;;-4.06;100.00;100279.27;1716767;83;21020;-72
2022/01/22 04:25:10;;;;;;;12.50;6.67;;;;;;;-4.06;100.00;100298.13;1720163;82;21129;-71
2022/01/22 04:27:37;;;;;;;10.70;5.93;;;;;;;-3.98;100.00;100300.31;1718477;83;21019;-71
2022/01/22 04:30:06;;;;;;;12.43;6.33;;;;;;;-3.97;100.00;100300.77;1715644;83;21472;-71
2022/01/22 04:32:33;;;;;;;11.57;5.90;;;;;;;-3.96;100.00;100294.05;1720949;82;21023;-71
2022/01/22 04:35:03;;;;;;;12.20;5.57;;;;;;;-3.95;100.00;100290.31;1720464;83;21038;-71
2022/01/22 04:37:30;;;;;;;9.27;4.73;;;;;;;-3.96;100.00;100301.17;1721859;82;21083;-71
2022/01/22 04:39:59;;;;;;;8.10;4.73;;;;;;;-4.06;100.00;100306.92;1720282;82;21143;-71
2022/01/22 04:42:29;;;;;;;10.17;4.73;;;;;;;-4.19;100.00;100310.97;1718747;83;21058;-69
2022/01/22 04:45:05;;;;;;;13.40;4.43;;;;;;;-4.26;100.00;100303.77;1724234;82;21023;-71
2022/01/22 04:54:57;;;;;;;16.13;6.30;;;;;;;-4.40;100.00;100290.15;1714498;83;21516;-70
2022/01/22 04:55:11;;;;;;;12.17;5.73;;;;;;;-4.40;100.00;100297.69;1713229;82;21094;-70
2022/01/22 04:57:44;;;;;;;12.30;5.80;;;;;;;-4.45;100.00;100299.31;1717263;82;21039;-70
2022/01/22 05:00:17;;;;;;;12.90;5.43;;;;;;;-4.46;100.00;100296.35;1717683;82;21074;-70
2022/01/22 05:02:45;;;;;;;14.00;5.80;;;;;;;-4.49;100.00;100297.58;1684477;83;21079;-71
2022/01/22 05:05:34;;;;;;;10.60;5.53;;;;;;;-4.53;100.00;100298.36;1715113;83;21083;-70
2022/01/22 05:08:03;;;;;;;13.30;6.10;;;;;;;-4.58;100.00;100300.81;1724888;82;20984;-69
2022/01/22 05:10:47;;;;;;;13.67;6.10;;;;;;;-4.65;100.00;100301.13;1719097;82;21038;-72
2022/01/22 05:13:14;;;;;;;12.00;5.63;;;;;;;-4.68;100.00;100306.11;1719572;82;21046;-72
2022/01/22 05:15:43;;;;;;;10.73;5.73;;;;;;;-4.67;100.00;100307.79;1722935;82;21035;-71
2022/01/22 05:18:10;;;;;;;10.80;5.93;;;;;;;-4.66;100.00;100305.72;1716027;83;21066;-71
2022/01/22 05:20:47;;;;;;;13.63;5.50;;;;;;;-4.69;100.00;100299.39;1720889;82;21519;-71
2022/01/22 05:23:13;;;;;;;9.20;5.87;;;;;;;-4.77;100.00;100304.70;1718248;83;21511;-71
2022/01/22 05:25:42;;;;;;;15.07;6.13;;;;;;;-4.80;100.00;100308.45;1719628;82;21504;-71
2022/01/22 05:28:30;;;;;;;12.13;5.83;;;;;;;-4.84;100.00;100312.98;1716624;83;21637;-71
2022/01/22 05:38:36;;;;;;;13.27;6.17;;;;;;;-4.80;100.00;100313.89;1723237;82;21055;-71
2022/01/22 05:41:03;;;;;;;18.20;6.60;;;;;;;-4.83;100.00;100324.70;1719734;82;21043;-70
2022/01/22 05:43:32;;;;;;;13.43;6.87;;;;;;;-4.80;100.00;100328.53;1699486;83;21113;-71
2022/01/22 05:45:59;;;;;;;14.30;7.27;;;;;;;-4.78;100.00;100334.84;1715709;83;20979;-71
2022/01/22 05:48:27;;;;;;;15.93;6.47;;;;;;;-4.76;100.00;100331.94;1715044;83;20977;-70
2022/01/22 05:51:02;;;;;;;12.60;6.13;;;;;;;-4.74;100.00;100331.14;1715861;82;20988;-71
2022/01/22 05:53:50;;;;;;;13.07;6.17;;;;;;;-4.73;100.00;100322.77;1722772;82;21022;-71
2022/01/22 06:01:25;;;;;;;14.90;6.87;;;;;;;-4.75;100.00;100324.83;1715266;83;21504;-69
2022/01/22 06:03:54;;;;;;;13.60;6.67;;;;;;;-4.71;100.00;100320.28;1723582;83;21038;-70
2022/01/22 06:06:22;;;;;;;14.30;6.83;;;;;;;-4.65;100.00;100324.98;1717071;83;21039;-70
2022/01/22 06:08:53;;;;;;;17.30;7.10;;;;;;;-4.59;100.00;100325.91;1717712;83;21495;-70
2022/01/22 06:11:26;;;;;;;13.17;6.33;;;;;;;-4.53;100.00;100320.55;1715515;83;21030;-70
2022/01/22 06:13:53;;;;;;;12.73;6.53;;;;;;;-4.48;100.00;100313.94;1716006;82;21161;-71
2022/01/22 06:16:28;;;;;;;14.10;7.00;;;;;;;-4.46;100.00;100323.59;1717361;82;21070;-71
2022/01/22 06:19:04;;;;;;;13.40;6.50;;;;;;;-4.41;100.00;100327.84;1719992;82;21068;-70
2022/01/22 06:21:31;;;;;;;11.97;6.30;;;;;;;-4.35;100.00;100330.02;1719113;82;21543;-71
2022/01/22 06:23:58;;;;;;;13.80;6.60;;;;;;;-4.31;100.00;100334.68;1720169;82;21073;-72
2022/01/22 06:26:26;;;;;;;13.10;6.43;;;;;;;-4.33;100.00;100334.65;1724678;82;21539;-71
2022/01/22 06:28:54;;;;;;;12.37;6.67;;;;;;;-4.25;100.00;100332.25;1712451;82;21016;-72
2022/01/22 06:31:24;;;;;;;16.13;7.20;;;;;;;-4.23;100.00;100335.20;1723339;82;21007;-72
2022/01/22 06:33:52;;;;;;;18.23;6.90;;;;;;;-4.17;100.00;100342.41;1727728;82;21102;-71
2022/01/22 06:36:19;;;;;;;17.77;7.30;;;;;;;-4.12;100.00;100350.84;1713492;83;21070;-71
2022/01/22 06:38:48;;;;;;;23.63;7.63;;;;;;;-4.13;100.00;100355.45;1714306;82;21076;-72
2022/01/22 06:44:19;;;;;;;23.97;8.77;;;;;;;-3.90;100.00;100345.25;1723377;82;21050;-71
2022/01/22 06:46:55;;;;;;;25.73;8.53;;;;;;;-3.83;100.00;100347.03;1728579;82;21015;-70
2022/01/22 06:49:41;;;;;;;25.97;9.07;;;;;;;-3.78;100.00;100348.75;1719737;82;20983;-70
2022/01/22 06:52:29;;;;;;;19.63;7.77;;;;;;;-3.73;100.00;100351.76;1725254;81;21567;-69
2022/01/22 06:54:58;;;;;;;18.00;7.70;;;;;;;-3.59;100.00;100345.59;1682527;83;20994;-71
2022/01/22 06:57:25;;;;;;;17.83;8.00;;;;;;;-3.47;100.00;100343.25;1724047;82;21503;-70
2022/01/22 06:59:52;;;;;;;16.50;7.37;;;;;;;-3.38;100.00;100346.69;1724330;82;21475;-70
2022/01/22 07:02:20;;;;;;;16.57;7.50;;;;;;;-3.40;100.00;100355.89;1710192;82;21032;-71
2022/01/22 07:04:48;;;;;;;16.60;7.07;;;;;;;-3.30;100.00;100357.67;1701098;83;20990;-71
2022/01/22 07:07:35;;;;;;;18.50;6.67;;;;;;;-3.23;100.00;100355.20;1718655;82;21035;-71
2022/01/22 07:10:04;;;;;;;15.93;7.97;;;;;;;-3.12;100.00;100350.68;1715164;82;21024;-71
2022/01/22 07:12:32;;;;;;;14.50;6.60;;;;;;;-3.07;100.00;100342.77;1717926;82;21650;-71
2022/01/22 07:14:59;;;;;;;17.63;7.47;;;;;;;-3.02;100.00;100353.31;1722388;81;21070;-70
2022/01/22 07:17:29;;;;;;;15.50;7.30;;;;;;;-3.00;100.00;100358.77;1724283;82;21004;-70
2022/01/22 07:19:57;;;;;;;19.57;7.63;;;;;;;-2.95;100.00;100360.92;1723052;82;21023;-71
2022/01/22 07:25:04;;;;;;;13.57;7.17;;;;;;;-2.70;100.00;100357.75;1718653;82;21015;-70
2022/01/22 07:27:31;;;;;;;17.70;8.03;;;;;;;-2.59;100.00;100353.23;1700567;82;21007;-71
2022/01/22 07:29:58;;;;;;;14.30;7.63;;;;;;;-2.55;100.00;100355.78;1717859;82;21018;-71
2022/01/22 07:32:32;;;;;;;16.30;7.57;;;;;;;-2.48;100.00;100358.75;1712792;82;21039;-70
2022/01/22 07:34:55;;;;;;;11.60;6.67;;;;;;;-2.40;100.00;100361.75;1705447;82;21062;-71
2022/01/22 07:37:24;;;;;;;14.17;6.60;;;;;;;-2.35;100.00;100368.91;1696625;83;21099;-71
2022/01/22 07:39:52;;;;;;;15.43;6.73;;;;;;;-2.30;100.00;100366.86;1718018;83;21035;-70
2022/01/22 07:42:39;;;;;;;13.53;7.27;;;;;;;-2.28;100.00;100366.45;1716665;83;21044;-71
2022/01/22 07:45:20;;;;;;;16.13;7.73;;;;;;;-2.19;100.00;100364.81;1716780;83;21085;-71
2022/01/22 07:47:48;;;;;;;10.67;6.83;;;;;;;-2.04;100.00;100369.95;1716880;83;21027;-71
2022/01/22 07:50:17;;;;;;;14.77;7.80;;;;;;;-1.92;100.00;100365.39;1717231;83;21515;-71
2022/01/22 07:52:45;;;;;;;14.37;7.13;;;;;;;-1.89;100.00;100369.17;1712787;83;21538;-71
2022/01/22 07:55:13;;;;;;;12.57;7.57;;;;;;;-1.77;100.00;100370.48;1695973;82;21123;-71
2022/01/22 07:57:41;;;;;;;18.03;7.60;;;;;;;-1.73;100.00;100367.14;1694558;82;21030;-71
2022/01/22 08:00:11;;;;;;;14.23;7.40;;;;;;;-1.68;100.00;100368.02;1688775;84;21055;-71
2022/01/22 08:02:42;;;;;;;14.37;7.33;;;;;;;-1.66;100.00;100364.23;1670125;84;21119;-70
2022/01/22 08:05:28;;;;;;;12.73;6.70;;;;;;;-1.62;100.00;100362.15;1685395;85;21554;-69
2022/01/22 08:08:13;;;;;;;15.07;7.50;;;;;;;-1.51;100.00;100369.75;1685959;84;21032;-71
2022/01/22 08:10:49;;;;;;;12.80;7.40;;;;;;;-1.36;100.00;100374.82;1619955;86;21495;-72
2022/01/22 08:13:18;;;;;;;14.93;7.60;;;;;;;-1.34;100.00;100384.50;1694820;83;21105;-70
2022/01/22 08:15:45;;;;;;;14.97;6.70;;;;;;;-1.39;100.00;100390.41;1703093;82;21083;-71
2022/01/22 08:18:13;;;;;;;11.17;6.13;;;;;;;-1.44;100.00;100394.16;1692844;83;21043;-71
2022/01/22 08:20:40;;;;;;;11.80;6.73;;;;;;;-1.45;100.00;100392.48;1695787;82;21054;-71
2022/01/22 08:23:07;;;;;;;18.90;7.73;;;;;;;-1.41;100.00;100394.18;1695344;82;21570;-70
2022/01/22 08:25:49;;;;;;;11.40;6.63;;;;;;;-1.50;100.00;100391.61;1698296;82;21070;-71
2022/01/22 08:31:19;;;;;;;13.13;7.00;;;;;;;-1.45;100.00;100399.63;1692933;82;21067;-70
2022/01/22 08:36:04;;;;;;;15.17;7.63;;;;;;;-1.39;100.00;100397.55;1668815;85;21583;-69
2022/01/22 08:38:35;;;;;;;12.37;7.43;;;;;;;-1.35;100.00;100395.89;1688177;84;21023;-70
2022/01/22 08:41:02;;;;;;;13.67;7.53;;;;;;;-1.20;100.00;100398.44;1695870;82;21169;-70
2022/01/22 08:43:32;;;;;;;12.75;7.55;;;;;;;-1.17;100.00;100405.20;1698889;82;21055;-70
2022/01/22 08:46:02;;;;;;;17.27;8.40;;;;;;;-1.06;100.00;100405.62;1692536;83;21062;-70
2022/01/22 08:48:30;;;;;;;13.53;7.37;;;;;;;-0.90;100.00;100400.59;1695666;83;21563;-69
2022/01/22 08:51:00;;;;;;;14.70;8.17;;;;;;;-0.76;100.00;100407.77;1701551;83;21023;-69
2022/01/22 08:53:29;;;;;;;12.33;7.05;;;;;;;-0.63;100.00;100411.13;1705049;82;21535;-70
2022/01/22 08:55:58;;;;;;;15.48;7.78;;;;;;;-0.47;100.00;100399.34;1694805;82;21039;-70
2022/01/22 08:58:25;;;;;;;13.53;7.65;;;;;;;-0.34;100.00;100410.30;1697201;83;21058;-70
2022/01/22 09:00:54;;;;;;;17.50;7.97;;;;;;;-0.11;100.00;100403.94;1689556;83;21032;-70
2022/01/22 09:03:24;;;;;;;14.95;7.85;;;;;;;0.04;100.00;100403.05;1699390;82;21094;-70
2022/01/22 09:06:00;;;;;;;13.55;8.08;;;;;;;0.07;100.00;100410.22;1657693;83;21137;-70
2022/01/22 09:08:28;;;;;;;13.05;7.53;;;;;;;0.14;100.00;100404.70;1692730;83;21123;-68
2022/01/22 09:11:12;;;;;;;17.40;8.68;;;;;;;0.39;100.00;100410.55;1613909;86;21087;-69
2022/01/22 09:13:56;;;;;;;16.45;8.43;;;;;;;0.47;100.00;100411.78;1646230;85;21163;-69
2022/01/22 09:16:25;;;;;;;16.40;8.58;;;;;;;0.43;100.00;100407.15;1641222;85;21097;-69
2022/01/22 09:18:58;;;;;;;16.40;8.70;;;;;;;0.63;100.00;100407.47;1696795;83;21056;-69
2022/01/22 09:21:25;;;;;;;14.78;7.42;;;;;;;0.54;100.00;100407.92;1683832;84;21051;-69
2022/01/22 09:23:52;;;;;;;13.58;7.33;;;;;;;0.64;100.00;100402.83;1686793;85;21051;-69
2022/01/22 09:26:22;;;;;;;15.28;7.75;;;;;;;0.54;100.00;100404.13;1675617;83;21582;-69
2022/01/22 09:28:50;;;;;;;14.05;8.13;;;;;;;0.59;100.00;100403.70;1687609;83;21083;-70
2022/01/22 09:31:17;;;;;;;15.00;8.75;;;;;;;0.82;100.00;100391.33;1701685;82;21059;-69
2022/01/22 09:33:45;;;;;;;12.90;8.03;;;;;;;0.74;100.00;100396.86;1694106;83;21001;-68
2022/01/22 09:36:33;;;;;;;16.37;7.80;;;;;;;0.94;100.00;100391.25;1692439;82;21071;-70
2022/01/22 09:39:19;;;;;;;15.48;8.15;;;;;;;1.23;100.00;100390.19;1727968;82;21301;-70
2022/01/22 09:41:59;;;;;;;15.50;7.80;;;;;;;1.26;100.00;100386.78;1720596;82;21033;-69
2022/01/22 09:44:28;;;;;;;14.98;7.60;;;;;;;1.14;100.00;100392.38;1709515;82;21045;-71
2022/01/22 09:47:04;;;;;;;14.03;7.42;;;;;;;1.00;100.00;100392.91;1723219;82;21051;-71
2022/01/22 09:49:51;;;;;;;12.10;7.37;;;;;;;1.11;100.00;100389.02;1625417;87;21084;-72
2022/01/22 09:52:29;;;;;;;11.78;7.45;;;;;;;1.24;100.00;100388.09;1603730;89;21124;-69
2022/01/22 09:55:16;;;;;;;19.82;9.25;;;;;;;1.37;100.00;100385.02;1682012;83;21562;-71
2022/01/22 09:58:02;;;;;;;15.32;8.20;;;;;;;1.34;100.00;100393.50;1710436;83;21044;-69
2022/01/22 10:00:40;;;;;;;15.85;8.10;;;;;;;1.11;100.00;100387.75;1698764;83;21035;-70
2022/01/22 10:03:20;;;;;;;13.43;7.70;;;;;;;1.15;100.00;100387.70;1732119;82;21524;-70
2022/01/22 10:06:07;;;;;;;14.45;7.78;;;;;;;1.09;100.00;100385.66;1727926;82;21071;-70
2022/01/22 10:09:23;;;;;;;14.43;8.13;;;;;;;0.86;100.00;100386.66;1669079;85;21054;-69
2022/01/22 10:12:16;;;;;;;13.53;7.72;;;;;;;0.86;100.00;100392.98;1734023;82;21028;-70
2022/01/22 10:15:15;;;;;;;18.07;8.45;;;;;;;0.91;100.00;100391.69;1711205;82;21043;-70
2022/01/22 10:17:54;;;;;;;12.10;7.55;;;;;;;0.93;100.00;100389.58;1729757;82;21087;-69
2022/01/22 10:20:28;;;;;;;13.45;7.75;;;;;;;1.16;100.00;100389.41;1736233;82;21000;-70
2022/01/22 10:23:18;;;;;;;15.83;8.33;;;;;;;1.36;100.00;100380.38;1721569;82;21022;-70
2022/01/22 10:25:46;;;;;;;17.40;8.40;;;;;;;1.37;100.00;100382.05;1717301;83;21060;-71
2022/01/22 10:28:22;;;;;;;13.45;7.30;;;;;;;1.47;100.00;100376.91;1656167;85;21055;-72
2022/01/22 10:30:58;;;;;;;13.85;7.83;;;;;;;1.21;100.00;100386.83;1656240;86;21101;-71
2022/01/22 10:33:33;;;;;;;13.98;8.25;;;;;;;1.14;100.00;100384.77;1705138;83;21085;-72
2022/01/22 10:39:13;;;;;;;14.13;8.68;;;;;;;1.07;100.00;100378.05;1701282;83;21021;-73
2022/01/22 10:41:43;;;;;;;16.17;9.88;;;;;;;1.14;100.00;100378.88;1702761;83;21491;-75
2022/01/22 10:44:21;;;;;;;17.05;9.38;;;;;;;1.36;100.00;100379.11;1724660;82;21591;-75
2022/01/22 10:49:24;;;;;;;15.60;8.48;;;;;;;1.80;100.00;100386.75;1728445;82;21145;-75
2022/01/22 10:52:07;;;;;;;15.75;8.98;;;;;;;1.96;100.00;100379.79;1723817;82;21068;-75
2022/01/22 10:54:36;;;;;;;14.33;8.10;;;;;;;2.35;100.00;100380.62;1651166;85;21135;-76
2022/01/22 10:57:19;;;;;;;16.70;8.68;;;;;;;2.50;100.00;100379.61;1720628;82;21533;-75
2022/01/22 10:59:50;;;;;;;16.10;8.80;;;;;;;2.71;99.26;100379.73;1731256;82;21064;-75
2022/01/22 11:02:20;;;;;;;15.28;8.28;;;;;;;2.72;97.60;100384.80;1729701;82;21019;-76
2022/01/22 11:04:47;;;;;;;15.15;7.80;;;;;;;2.86;96.33;100382.08;1731069;82;21080;-75
2022/01/22 11:07:20;;;;;;;13.98;8.18;;;;;;;2.87;95.75;100384.17;1722005;82;21111;-76
2022/01/22 11:09:49;;;;;;;14.93;8.40;;;;;;;2.60;96.43;100381.16;1708963;83;21030;-75
2022/01/22 11:12:16;;;;;;;18.55;9.60;;;;;;;2.28;97.24;100392.56;1722323;82;21105;-76
2022/01/22 11:14:45;;;;;;;15.38;8.33;;;;;;;2.25;98.97;100396.42;1724437;82;21091;-75
2022/01/22 11:17:14;;;;;;;14.40;8.18;;;;;;;1.65;99.59;100392.39;1726748;82;21571;-75
2022/01/22 11:19:46;;;;;;;14.60;8.35;;;;;;;1.65;99.59;100392.39;1726360;82;21058;-75
2022/01/22 11:22:17;;;;;;;15.48;8.50;;;;;;;1.24;100.00;100396.96;1720406;82;22109;-76
2022/01/22 11:24:51;;;;;;;16.10;8.05;;;;;;;1.19;100.00;100396.14;1710949;82;21040;-76
2022/01/22 11:27:21;;;;;;;15.72;9.33;;;;;;;1.10;100.00;100398.76;1708221;83;21527;-74
2022/01/22 11:29:56;;;;;;;15.43;8.13;;;;;;;1.19;100.00;100393.17;1704472;82;21087;-74
2022/01/22 11:32:41;;;;;;;16.25;7.90;;;;;;;1.12;100.00;100399.16;1702661;82;21091;-74
2022/01/22 11:35:10;;;;;;;17.77;9.53;;;;;;;1.20;100.00;100404.18;1695179;83;21020;-75
2022/01/22 11:37:55;;;;;;;18.02;9.18;;;;;;;1.42;100.00;100412.88;1698949;84;21059;-74
2022/01/22 11:40:27;;;;;;;17.35;9.05;;;;;;;1.56;100.00;100412.33;1723004;82;21033;-75
2022/01/22 11:43:12;;;;;;;15.10;8.75;;;;;;;1.57;100.00;100413.59;1735581;82;21071;-75
2022/01/22 11:45:52;;;;;;;;;;;;;;;1.63;100.00;100412.70;1663237;85;21052;-75
2022/01/22 11:48:23;;;;;;;16.27;8.53;;;;;;;1.81;100.00;100418.04;1631361;87;20165;-75
2022/01/22 11:50:56;;;;;;;13.83;8.58;;;;;;;2.00;100.00;100417.42;1655966;85;21005;-75
2022/01/22 11:53:37;;;;;;;17.27;8.40;;;;;;;2.02;100.00;100420.78;1685619;84;21069;-75
2022/01/22 11:56:24;;;;;;;13.60;8.10;;;;;;;1.92;100.00;100420.03;1673748;85;21085;-75
2022/01/22 11:59:05;;;;;;;12.45;7.67;;;;;;;1.77;100.00;100413.84;1683090;83;21566;-75
2022/01/22 12:01:51;;;;;;;13.60;7.67;;;;;;;1.84;100.00;100415.45;1681681;84;21056;-74
2022/01/22 12:04:40;;;;;;;13.70;7.42;;;;;;;1.72;100.00;100415.14;1705830;83;21019;-74
2022/01/22 12:07:12;;;;;;;15.08;8.40;;;;;;;1.52;100.00;100415.75;1722105;82;21024;-74
2022/01/22 12:15:23;;;;;;;15.08;7.58;;;;;;;1.40;100.00;100421.34;1709325;83;21081;-73
2022/01/22 12:18:05;;;;;;;15.13;8.20;;;;;;;1.32;100.00;100421.84;1698848;83;21098;-75
2022/01/22 12:23:09;;;;;;;14.60;8.35;;;;;;;1.37;100.00;100421.80;1700514;83;21082;-74
2022/01/22 12:25:41;;;;;;;15.58;7.62;;;;;;;1.51;100.00;100420.42;1696358;83;21074;-75
2022/01/22 12:28:12;;;;;;;14.50;8.10;;;;;;;1.47;100.00;100421.30;1704935;83;21547;-76
2022/01/22 12:30:51;;;;;;;13.38;7.62;;;;;;;1.43;100.00;100419.64;1704385;84;21039;-75
2022/01/22 12:33:36;;;;;;;12.37;7.58;;;;;;;1.45;100.00;100427.64;1705252;83;21058;-75
2022/01/22 12:36:28;;;;;;;13.70;7.33;;;;;;;1.42;100.00;100422.61;1704315;83;21106;-75
2022/01/22 12:41:34;;;;;;;15.32;7.40;;;;;;;1.40;100.00;100425.59;1697446;83;21047;-75
2022/01/22 12:46:54;;;;;;;13.93;7.97;;;;;;;1.38;100.00;100428.13;1706454;83;21011;-74
2022/01/22 12:49:23;;;;;;;15.40;8.38;;;;;;;1.56;100.00;100425.88;1703728;83;21118;-75
2022/01/22 12:51:58;;;;;;;14.80;8.53;;;;;;;1.63;100.00;100424.55;1711640;83;21555;-74
2022/01/22 12:54:41;;;;;;;15.05;8.33;;;;;;;1.59;100.00;100423.30;1699869;83;21099;-75
2022/01/22 12:57:16;;;;;;;15.65;9.20;;;;;;;1.64;100.00;100439.73;1707168;83;21043;-75
2022/01/22 13:00:10;;;;;;;15.95;8.75;;;;;;;1.66;100.00;100425.34;1711905;83;21023;-74
2022/01/22 13:02:43;;;;;;;15.45;8.65;;;;;;;1.63;100.00;100426.66;1708636;83;21000;-75
2022/01/22 13:05:17;;;;;;;19.52;9.38;;;;;;;1.65;100.00;100424.11;1707174;83;21031;-75
2022/01/22 13:08:01;;;;;;;19.32;8.90;;;;;;;1.64;100.00;100432.12;1653445;83;21055;-75
2022/01/22 13:10:48;;;;;;;13.30;7.33;;;;;;;1.63;100.00;100437.24;1698115;83;21026;-76
2022/01/22 13:13:19;;;;;;;15.45;8.30;;;;;;;1.51;100.00;100443.25;1699611;83;21169;-76
2022/01/22 13:15:46;;;;;;;17.40;8.35;;;;;;;1.46;100.00;100441.16;1706094;83;21083;-76
2022/01/22 13:18:15;;;;;;;16.67;8.73;;;;;;;1.48;100.00;100447.93;1700785;83;21674;-76